Akrotiri, Cyprus
Current Conditions -  °F | °C
As of 6:50 PM on Friday 24 Oct 2014 (Local Time) from LCRA Reporting Station
Few Clouds Few Clouds  
Wind Chill: 75°   Ceiling: Unl
Heat Index: 75°   Visibility: 6mi
Dew Point: 66°   Wind: 6mph
Humidity: 73%   Direction: 210°SSW
Pressure: 29.97"   Gusts: NA
Location:  34.6°N, 32.96°E
Report Text: LCRA 241550Z 21005KT 9999 FEW030 24/19 Q1015 NOSIG
Loading
Personal Weather Stations






























Interactive Weather Map
Tropical Storm Tracking
New forecast layout! Learn more

10-Day Weather Forecast

Advertisements
Track Severe Weather on mobile